Portada
METAR-TAF:

METAR-TAF

Aeroports :

Yaoundé, Camerun

latitud: 03-50N, longitud: 011-31E, altitud: 751 m

Observació

L'informe es va fer fa 1 hora i 8 minuts, a les 22:00 UTC
Vent 3 kt del Sud-Oest, variant entre Sud i Oest
Temperatura 23°C
Humitat 94%
Pressió 1018 hPa
Visibilitat: 7000 m
Cel ennuvolat a una alçada de 600 ft

METAR: FKYS 042200Z 23003KT 190V280 7000 BKN006 23/22 Q1018 NOSIG

Hora: 00:08 (23:08 UTC)

Pronòstic

L'informe es va fer fa 6 hores i 8 minuts, a les 17:00 UTC
Pronòstic vàlid del 04 a les 18 UTC al 05 a les 18 UTC
Vent 3 kt amb direcció variable
Visibilitat: 8000 m
Escasses núvols a una alçada de 1300 ft
Evolucionant progressivament
l' 04 a les 22 UTC al 04 a les 24 UTC
Cel ennuvolat a una alçada de 600 ft

TAF: FKYS 041700Z 0418/0518 VRB03KT 8000 FEW013 BECMG 0422/0424 BKN006

Observacions i pronòstics meteorològics de més de 4000 aeroports (METAR i TAF).

Les estacions disponibles són els punts grocs i vermells al mapa.

Posi el ratolí al punt desitjat per veure el nom de l'estació.

Feu clic per veure les observacions i els pronòstics meteorològics.

Per canviar el mapa: feu clic els botons verds amb una creu de color negre per apropar; al botó verd amb un guió per allunyar la imatge; o en les fletxes verdes per a mapes adjacents.


METAR-TAF: